createdAt,value
2023-02-13T00:01:38.926Z,98956.56
2023-02-13T00:04:08.208Z,98948.00
2023-02-13T00:06:37.324Z,98956.56
2023-02-13T00:09:07.339Z,98954.84
2023-02-13T00:11:36.549Z,98953.13
2023-02-13T00:14:06.024Z,98953.97
2023-02-13T00:16:35.823Z,98955.69
2023-02-13T00:19:05.367Z,98947.13
2023-02-13T00:21:34.413Z,98943.69
2023-02-13T00:24:03.651Z,98936.00
2023-02-13T00:26:32.797Z,98929.13
2023-02-13T00:29:01.822Z,98941.09
2023-02-13T00:31:31.252Z,98939.34
2023-02-13T00:34:00.942Z,98945.34
2023-02-13T00:36:30.079Z,98947.94
2023-02-13T00:38:59.644Z,98948.72
2023-02-13T00:41:28.994Z,98945.31
2023-02-13T00:43:58.215Z,98938.50
2023-02-13T00:46:27.176Z,98941.09
2023-02-13T00:48:57.245Z,98950.53
2023-02-13T00:51:26.200Z,98950.53
2023-02-13T00:53:55.859Z,98944.50
2023-02-13T00:56:25.046Z,98947.03
2023-02-13T00:58:54.583Z,98948.75
2023-02-13T01:01:26.822Z,98948.78
2023-02-13T01:03:56.672Z,98949.59
2023-02-13T01:06:27.806Z,98948.78
2023-02-13T01:08:58.324Z,98947.88
2023-02-13T01:11:28.705Z,98955.56
2023-02-13T01:13:59.387Z,98958.94
2023-02-13T01:16:31.662Z,98967.50
2023-02-13T01:19:02.915Z,98966.59
2023-02-13T01:21:33.406Z,98962.38
2023-02-13T01:24:05.728Z,98963.25
2023-02-13T01:26:36.940Z,98976.94
2023-02-13T01:29:06.665Z,98978.59
2023-02-13T01:31:35.864Z,98982.91
2023-02-13T01:34:05.666Z,98982.88
2023-02-13T01:36:34.855Z,98994.84
2023-02-13T01:39:04.210Z,98981.97
2023-02-13T01:41:33.603Z,98993.94
2023-02-13T01:44:03.458Z,98991.38
2023-02-13T01:46:43.771Z,98995.69
2023-02-13T01:49:22.074Z,99013.72
2023-02-13T01:51:56.343Z,99022.22
2023-02-13T01:54:31.912Z,99028.22
2023-02-13T01:57:18.169Z,99034.25
2023-02-13T02:00:00.520Z,99027.44
2023-02-13T02:02:35.300Z,99036.88
2023-02-13T02:05:07.570Z,99041.94
2023-02-13T02:07:39.677Z,99047.94
2023-02-13T02:10:15.195Z,99035.13
2023-02-13T02:12:54.921Z,99042.88
2023-02-13T02:15:24.711Z,99051.41
2023-02-13T02:17:54.848Z,99052.28
2023-02-13T02:20:47.816Z,99048.94
2023-02-13T02:23:29.976Z,99054.09
2023-02-13T02:26:21.081Z,99051.56
2023-02-13T02:29:16.016Z,99055.00
2023-02-13T02:31:51.400Z,99057.44
2023-02-13T02:34:47.820Z,99066.19
2023-02-13T02:38:16.360Z,99071.34
2023-02-13T02:41:00.015Z,99077.34
2023-02-13T02:43:48.341Z,99099.63
2023-02-13T02:46:32.273Z,99098.72
2023-02-13T02:49:35.342Z,99110.81
2023-02-13T02:52:16.459Z,99098.81
2023-02-13T02:55:09.136Z,99116.00
2023-02-13T02:58:49.318Z,99116.88
2023-02-13T03:01:43.243Z,99126.31
2023-02-13T03:04:58.154Z,99115.28
2023-02-13T03:07:28.150Z,99118.63
2023-02-13T03:10:25.707Z,99122.19
2023-02-13T03:13:35.972Z,99120.47
2023-02-13T03:16:23.990Z,99130.72
2023-02-13T03:19:15.767Z,99130.75
2023-02-13T03:22:24.595Z,99136.81
2023-02-13T03:25:12.140Z,99135.91
2023-02-13T03:28:10.469Z,99143.69
2023-02-13T03:30:54.009Z,99143.69
2023-02-13T03:33:50.876Z,99156.59
2023-02-13T03:37:04.839Z,99155.75
2023-02-13T03:40:04.732Z,99166.06
2023-02-13T03:42:45.210Z,99167.78
2023-02-13T03:45:38.961Z,99165.19
2023-02-13T03:48:31.094Z,99163.47
2023-02-13T03:51:04.305Z,99168.59
2023-02-13T03:53:36.964Z,99165.22
2023-02-13T03:56:26.779Z,99160.91
2023-02-13T03:59:18.089Z,99166.91
2023-02-13T04:01:59.944Z,99159.19
2023-02-13T04:04:55.488Z,99165.16
2023-02-13T04:07:33.910Z,99165.19
2023-02-13T04:10:11.641Z,99173.75
2023-02-13T04:13:00.657Z,99178.88
2023-02-13T04:15:53.490Z,99174.53
2023-02-13T04:18:30.429Z,99166.78
2023-02-13T04:21:04.327Z,99170.19
2023-02-13T04:23:34.733Z,99168.47
2023-02-13T04:26:10.495Z,99166.72
2023-02-13T04:28:40.234Z,99157.25
2023-02-13T04:31:10.923Z,99147.72
2023-02-13T04:33:40.359Z,99150.25
2023-02-13T04:36:09.614Z,99160.53
2023-02-13T04:38:39.040Z,99153.56
2023-02-13T04:41:08.552Z,99149.22
2023-02-13T04:43:38.328Z,99145.75
2023-02-13T04:46:09.004Z,99139.63
2023-02-13T04:48:38.938Z,99151.66
2023-02-13T04:51:08.426Z,99160.13
2023-02-13T04:53:37.818Z,99158.34
2023-02-13T04:56:07.019Z,99159.22
2023-02-13T04:58:36.380Z,99145.31
2023-02-13T05:01:14.025Z,99162.47
2023-02-13T05:03:43.592Z,99164.19
2023-02-13T05:06:12.818Z,99169.28
2023-02-13T05:08:42.170Z,99179.56
2023-02-13T05:11:11.550Z,99182.06
2023-02-13T05:13:40.925Z,99189.84
2023-02-13T05:16:10.231Z,99194.00
2023-02-13T05:18:39.113Z,99195.66
2023-02-13T05:21:26.633Z,99192.06
2023-02-13T05:23:55.744Z,99187.88
2023-02-13T05:26:24.927Z,99188.63
2023-02-13T05:29:12.526Z,99190.34
2023-02-13T05:31:41.763Z,99194.56
2023-02-13T05:34:10.881Z,99190.28
2023-02-13T05:36:41.075Z,99194.47
2023-02-13T05:39:10.398Z,99192.63
2023-02-13T05:41:39.837Z,99173.59
2023-02-13T05:44:08.911Z,99171.81
2023-02-13T05:46:41.317Z,99171.66
2023-02-13T05:49:16.619Z,99169.94
2023-02-13T05:51:48.340Z,99159.53
2023-02-13T05:54:18.005Z,99159.66
2023-02-13T05:56:48.099Z,99149.34
2023-02-13T05:59:18.614Z,99151.94
2023-02-13T06:01:48.767Z,99148.88
2023-02-13T06:04:18.922Z,99144.47
2023-02-13T06:06:52.939Z,99139.03
2023-02-13T06:09:23.267Z,99132.00
2023-02-13T06:11:55.293Z,99131.13
2023-02-13T06:14:26.096Z,99122.25
2023-02-13T06:16:56.064Z,99116.88
2023-02-13T06:19:27.028Z,99118.72
2023-02-13T06:21:56.189Z,99109.69
2023-02-13T06:24:27.379Z,99116.53
2023-02-13T06:26:57.151Z,99114.84
2023-02-13T06:29:29.404Z,99113.94
2023-02-13T06:31:59.294Z,99114.75
2023-02-13T06:34:32.753Z,99119.56
2023-02-13T06:37:05.301Z,99111.94
2023-02-13T06:39:39.110Z,99092.88
2023-02-13T06:42:09.751Z,99096.13
2023-02-13T06:44:42.293Z,99094.16
2023-02-13T06:47:12.658Z,99096.78
2023-02-13T06:49:43.944Z,99096.63
2023-02-13T06:52:14.799Z,99090.16
2023-02-13T06:54:48.397Z,99085.63
2023-02-13T06:57:19.264Z,99074.50
2023-02-13T06:59:50.078Z,99066.59
2023-02-13T07:02:19.195Z,99059.56
2023-02-13T07:04:48.379Z,99057.91
2023-02-13T07:07:17.679Z,99055.16
2023-02-13T07:09:46.522Z,99040.47
2023-02-13T07:12:15.963Z,99038.28
2023-02-13T07:14:44.729Z,99034.88
2023-02-13T07:17:13.855Z,99032.03
2023-02-13T07:19:43.009Z,99024.94
2023-02-13T07:22:12.463Z,99027.31
2023-02-13T07:24:42.449Z,99032.88
2023-02-13T07:27:11.772Z,99020.38
2023-02-13T07:29:40.948Z,99035.16
2023-02-13T07:32:10.120Z,99022.75
2023-02-13T07:34:44.463Z,99020.94
2023-02-13T07:37:18.679Z,99021.66
2023-02-13T07:39:48.302Z,99014.69
2023-02-13T07:42:17.613Z,99012.31
2023-02-13T07:44:46.951Z,99000.31
2023-02-13T07:47:17.753Z,98982.91
2023-02-13T07:49:48.048Z,98993.63
2023-02-13T07:52:17.060Z,98982.63
2023-02-13T07:54:50.538Z,98983.34
2023-02-13T07:57:19.670Z,98968.69
2023-02-13T07:59:48.814Z,98964.91
2023-02-13T08:02:18.306Z,98969.34
2023-02-13T08:04:49.982Z,98956.97
2023-02-13T08:07:19.531Z,98949.56
2023-02-13T08:10:08.321Z,98940.97
2023-02-13T08:12:38.015Z,98930.06
2023-02-13T08:15:07.587Z,98916.72
2023-02-13T08:17:37.046Z,98922.06
2023-02-13T08:20:10.385Z,98917.59
2023-02-13T08:22:40.950Z,98915.66
2023-02-13T08:25:10.297Z,98904.56
2023-02-13T08:27:40.236Z,98899.88
2023-02-13T08:30:11.198Z,98891.84
2023-02-13T08:32:53.509Z,98879.88
2023-02-13T08:35:27.696Z,98878.34
2023-02-13T08:37:57.231Z,98885.09
2023-02-13T08:40:26.374Z,98879.41
2023-02-13T08:43:02.372Z,98872.94
2023-02-13T08:45:32.610Z,98866.97
2023-02-13T08:48:04.985Z,98881.84
2023-02-13T08:50:36.160Z,98883.13
2023-02-13T08:53:07.738Z,98878.31
2023-02-13T08:55:36.955Z,98894.66
2023-02-13T08:58:06.575Z,98905.25
2023-02-13T09:00:36.030Z,98899.47
2023-02-13T09:03:07.365Z,98907.44
2023-02-13T09:05:39.203Z,98910.63
2023-02-13T09:08:09.378Z,98909.50
2023-02-13T09:10:40.251Z,98892.69
2023-02-13T09:13:11.397Z,98892.31
2023-02-13T09:15:42.254Z,98881.94
2023-02-13T09:18:12.174Z,98876.19
2023-02-13T09:20:41.368Z,98872.94
2023-02-13T09:23:10.897Z,98872.09
2023-02-13T09:25:40.230Z,98870.69
2023-02-13T09:28:11.013Z,98870.66
2023-02-13T09:30:41.028Z,98855.63
2023-02-13T09:33:14.104Z,98860.47
2023-02-13T09:35:46.091Z,98861.94
2023-02-13T09:38:15.675Z,98853.38
2023-02-13T09:40:56.438Z,98848.25
2023-02-13T09:43:42.725Z,98844.53
2023-02-13T09:46:22.481Z,98842.66
2023-02-13T09:48:56.416Z,98834.84
2023-02-13T09:51:27.302Z,98847.00
2023-02-13T09:54:06.065Z,98832.16
2023-02-13T09:57:01.617Z,98842.81
2023-02-13T09:59:47.695Z,98844.84
2023-02-13T10:02:44.509Z,98840.13
2023-02-13T10:05:58.635Z,98848.13
2023-02-13T10:09:07.664Z,98848.34
2023-02-13T10:11:46.059Z,98858.84
2023-02-13T10:14:32.800Z,98847.97
2023-02-13T10:17:29.923Z,98839.13
2023-02-13T10:20:04.804Z,98849.53
2023-02-13T10:22:58.492Z,98836.22
2023-02-13T10:25:31.258Z,98828.59
2023-02-13T10:28:16.787Z,98832.03
2023-02-13T10:31:04.225Z,98839.22
2023-02-13T10:33:42.593Z,98833.03
2023-02-13T10:36:11.830Z,98832.50
2023-02-13T10:38:47.668Z,98824.13
2023-02-13T10:41:52.728Z,98839.47
2023-02-13T10:44:51.901Z,98823.84
2023-02-13T10:47:47.018Z,98821.63
2023-02-13T10:50:28.650Z,98821.78
2023-02-13T10:53:16.351Z,98819.56
2023-02-13T10:56:03.158Z,98814.28
2023-02-13T10:58:48.636Z,98817.06
2023-02-13T11:01:46.989Z,98801.81
2023-02-13T11:04:19.840Z,98794.53
2023-02-13T11:07:01.921Z,98795.03
2023-02-13T11:09:39.314Z,98785.31
2023-02-13T11:12:28.278Z,98795.66
2023-02-13T11:15:09.259Z,98791.06
2023-02-13T11:17:45.094Z,98790.09
2023-02-13T11:20:40.615Z,98792.44
2023-02-13T11:23:31.790Z,98802.72
2023-02-13T11:26:36.777Z,98799.00
2023-02-13T11:29:22.313Z,98810.09
2023-02-13T11:32:04.902Z,98800.41
2023-02-13T11:34:36.319Z,98802.28
2023-02-13T11:37:14.735Z,98804.97
2023-02-13T11:39:48.250Z,98805.25
2023-02-13T11:42:37.245Z,98794.56
2023-02-13T11:45:24.437Z,98792.03
2023-02-13T11:47:56.204Z,98791.88
2023-02-13T11:50:28.265Z,98779.31
2023-02-13T11:53:31.475Z,98774.19
2023-02-13T11:56:15.222Z,98765.50
2023-02-13T11:58:45.178Z,98770.59
2023-02-13T12:01:23.226Z,98774.28
2023-02-13T12:04:23.161Z,98787.25
2023-02-13T12:07:31.369Z,98784.78
2023-02-13T12:10:20.098Z,98781.78
2023-02-13T12:13:19.728Z,98783.41
2023-02-13T12:15:52.185Z,98794.34
2023-02-13T12:18:25.245Z,98786.50
2023-02-13T12:21:05.237Z,98791.16
2023-02-13T12:23:56.518Z,98793.66
2023-02-13T12:26:51.296Z,98795.19
2023-02-13T12:29:33.615Z,98799.06
2023-02-13T12:32:30.421Z,98806.00
2023-02-13T12:35:21.592Z,98797.59
2023-02-13T12:38:05.070Z,98791.66
2023-02-13T12:41:29.376Z,98782.19
2023-02-13T12:44:09.015Z,98787.78
2023-02-13T12:47:16.620Z,98785.22
2023-02-13T12:50:03.158Z,98789.16
2023-02-13T12:52:38.573Z,98790.13
2023-02-13T12:55:37.868Z,98798.75
2023-02-13T12:58:18.632Z,98797.03
2023-02-13T13:01:15.622Z,98798.06
2023-02-13T13:03:56.059Z,98801.03
2023-02-13T13:06:53.597Z,98803.41
2023-02-13T13:09:50.028Z,98802.78
2023-02-13T13:12:36.280Z,98804.72
2023-02-13T13:15:17.550Z,98815.31
2023-02-13T13:18:26.587Z,98818.69
2023-02-13T13:21:13.269Z,98828.56
2023-02-13T13:23:48.420Z,98830.38
2023-02-13T13:26:26.099Z,98834.78
2023-02-13T13:28:58.273Z,98840.13
2023-02-13T13:31:29.837Z,98836.78
2023-02-13T13:34:03.931Z,98843.66
2023-02-13T13:36:46.361Z,98848.09
2023-02-13T13:39:27.692Z,98852.84
2023-02-13T13:42:14.465Z,98849.31
2023-02-13T13:45:19.415Z,98855.22
2023-02-13T13:48:03.257Z,98852.66
2023-02-13T13:50:37.456Z,98853.81
2023-02-13T13:53:16.994Z,98853.75
2023-02-13T13:55:49.287Z,98853.84
2023-02-13T13:58:32.917Z,98858.94
2023-02-13T14:01:17.964Z,98865.03
2023-02-13T14:03:50.861Z,98858.44
2023-02-13T14:06:23.778Z,98854.28
2023-02-13T14:09:01.808Z,98868.19
2023-02-13T14:11:36.996Z,98870.81
2023-02-13T14:14:29.174Z,98872.50
2023-02-13T14:17:02.817Z,98877.25
2023-02-13T14:19:41.840Z,98879.75
2023-02-13T14:22:28.886Z,98879.75
2023-02-13T14:25:03.366Z,98873.00
2023-02-13T14:27:38.839Z,98871.34
2023-02-13T14:30:29.861Z,98876.78
2023-02-13T14:33:21.912Z,98889.75
2023-02-13T14:36:03.271Z,98897.50
2023-02-13T14:38:33.105Z,98892.69
2023-02-13T14:41:02.762Z,98897.09
2023-02-13T14:43:52.517Z,98894.34
2023-02-13T14:46:42.128Z,98904.75
2023-02-13T14:49:36.883Z,98903.09
2023-02-13T14:52:08.876Z,98903.28
2023-02-13T14:54:50.330Z,98910.94
2023-02-13T14:57:27.813Z,98914.41
2023-02-13T15:00:19.065Z,98917.91
2023-02-13T15:02:52.767Z,98911.25
2023-02-13T15:05:23.100Z,98919.06
2023-02-13T15:08:28.665Z,98918.00
2023-02-13T15:10:59.194Z,98917.34
2023-02-13T15:13:38.382Z,98925.91
2023-02-13T15:16:12.359Z,98921.72
2023-02-13T15:18:56.973Z,98926.88
2023-02-13T15:21:34.246Z,98933.09
2023-02-13T15:24:03.690Z,98934.09
2023-02-13T15:26:33.048Z,98933.31
2023-02-13T15:29:09.147Z,98931.50
2023-02-13T15:31:40.467Z,98937.66
2023-02-13T15:34:36.900Z,98952.91
2023-02-13T15:37:06.303Z,98952.38
2023-02-13T15:39:35.524Z,98959.28
2023-02-13T15:42:05.149Z,98959.31
2023-02-13T15:44:38.261Z,98966.22
2023-02-13T15:47:29.763Z,98979.88
2023-02-13T15:49:59.303Z,98971.50
2023-02-13T15:52:39.433Z,98969.63
2023-02-13T15:55:20.864Z,98969.66
2023-02-13T15:57:51.402Z,98964.66
2023-02-13T16:00:33.572Z,98967.13
2023-02-13T16:03:05.646Z,98973.22
2023-02-13T16:05:41.830Z,98967.13
2023-02-13T16:08:31.468Z,98974.03
2023-02-13T16:11:19.297Z,98974.06
2023-02-13T16:14:20.159Z,98981.84
2023-02-13T16:17:08.082Z,98994.91
2023-02-13T16:19:53.748Z,98987.94
2023-02-13T16:22:30.616Z,99009.53
2023-02-13T16:25:06.324Z,99009.56
2023-02-13T16:27:36.365Z,99016.53
2023-02-13T16:30:08.523Z,99014.69
2023-02-13T16:32:42.656Z,98990.59
2023-02-13T16:35:39.699Z,98992.16
2023-02-13T16:38:29.288Z,99014.50
2023-02-13T16:41:08.446Z,99015.41
2023-02-13T16:43:43.101Z,99003.34
2023-02-13T16:46:31.349Z,99003.34
2023-02-13T16:49:00.793Z,99007.00
2023-02-13T16:51:48.315Z,99002.47
2023-02-13T16:54:37.673Z,98989.59
2023-02-13T16:57:14.552Z,98988.03
2023-02-13T16:59:43.797Z,98987.31
2023-02-13T17:02:15.858Z,99001.09
2023-02-13T17:04:53.167Z,98999.31
2023-02-13T17:07:28.402Z,99011.28
2023-02-13T17:10:20.786Z,99014.75
2023-02-13T17:12:52.554Z,99019.19
2023-02-13T17:15:24.874Z,99015.81
2023-02-13T17:17:57.401Z,99022.78
2023-02-13T17:20:29.623Z,99026.16
2023-02-13T17:23:01.297Z,99036.53
2023-02-13T17:25:33.585Z,99040.00
2023-02-13T17:28:28.848Z,99042.53
2023-02-13T17:31:00.687Z,99045.25
2023-02-13T17:33:37.772Z,99046.91
2023-02-13T17:36:07.680Z,99042.72
2023-02-13T17:38:36.579Z,99040.16
2023-02-13T17:41:07.865Z,99040.16
2023-02-13T17:43:37.085Z,99041.91
2023-02-13T17:46:06.572Z,99025.59
2023-02-13T17:48:35.790Z,99028.19
2023-02-13T17:51:05.551Z,99026.44
2023-02-13T17:53:35.364Z,99046.25
2023-02-13T17:56:04.438Z,99048.84
2023-02-13T17:58:33.798Z,99042.00
2023-02-13T18:01:03.099Z,99048.00
2023-02-13T18:03:32.600Z,99035.13
2023-02-13T18:06:01.667Z,99030.00
2023-02-13T18:08:30.950Z,99029.13
2023-02-13T18:11:00.598Z,99040.31
2023-02-13T18:13:29.877Z,99051.53
2023-02-13T18:15:59.079Z,99059.25
2023-02-13T18:18:28.599Z,99060.13
2023-02-13T18:20:58.389Z,99062.72
2023-02-13T18:23:28.100Z,99069.59
2023-02-13T18:26:08.023Z,99066.91
2023-02-13T18:28:37.543Z,99069.56
2023-02-13T18:31:11.572Z,99066.88
2023-02-13T18:33:40.996Z,99067.72
2023-02-13T18:36:10.181Z,99073.72
2023-02-13T18:38:39.496Z,99071.97
2023-02-13T18:41:08.742Z,99066.69
2023-02-13T18:43:38.223Z,99062.28
2023-02-13T18:46:07.582Z,99060.53
2023-02-13T18:48:36.788Z,99061.34
2023-02-13T18:51:06.057Z,99052.72
2023-02-13T18:53:35.314Z,99049.25
2023-02-13T18:56:09.474Z,99038.75
2023-02-13T18:58:38.918Z,99032.00
2023-02-13T19:01:19.152Z,99021.59
2023-02-13T19:03:50.811Z,99031.06
2023-02-13T19:06:23.637Z,99035.34
2023-02-13T19:08:53.280Z,99026.75
2023-02-13T19:11:27.491Z,99013.84
2023-02-13T19:14:01.443Z,99019.88
2023-02-13T19:16:32.497Z,99025.06
2023-02-13T19:19:04.497Z,99018.16
2023-02-13T19:21:36.369Z,99017.34
2023-02-13T19:24:08.655Z,99012.19
2023-02-13T19:26:38.142Z,99011.34
2023-02-13T19:29:07.349Z,99013.16
2023-02-13T19:31:36.792Z,99009.66
2023-02-13T19:34:06.744Z,98998.53
2023-02-13T19:36:35.993Z,98999.38
2023-02-13T19:39:09.904Z,99006.22
2023-02-13T19:41:41.518Z,98995.16
2023-02-13T19:44:11.218Z,98994.31
2023-02-13T19:46:40.387Z,98999.53
2023-02-13T19:49:10.907Z,99005.50
2023-02-13T19:51:42.939Z,99006.41
2023-02-13T19:54:13.823Z,98995.97
2023-02-13T19:56:44.439Z,98982.25
2023-02-13T19:59:14.414Z,98974.59
2023-02-13T20:01:43.646Z,98974.59
2023-02-13T20:04:13.832Z,98969.44
2023-02-13T20:06:43.429Z,98967.81
2023-02-13T20:09:14.950Z,98961.72
2023-02-13T20:11:46.428Z,98962.66
2023-02-13T20:14:16.262Z,98968.75
2023-02-13T20:16:47.342Z,98965.34
2023-02-13T20:19:16.589Z,98971.38
2023-02-13T20:21:46.312Z,98974.00
2023-02-13T20:24:15.578Z,98975.75
2023-02-13T20:26:45.071Z,98980.91
2023-02-13T20:29:14.400Z,98986.09
2023-02-13T20:31:43.514Z,98987.00
2023-02-13T20:34:13.069Z,98989.56
2023-02-13T20:36:42.084Z,98987.00
2023-02-13T20:39:11.697Z,98975.81
2023-02-13T20:41:40.848Z,98984.44
2023-02-13T20:44:13.638Z,98974.00
2023-02-13T20:46:43.257Z,98966.34
2023-02-13T20:49:13.363Z,98962.03
2023-02-13T20:51:42.560Z,98958.66
2023-02-13T20:54:11.829Z,98952.63
2023-02-13T20:56:40.952Z,98949.19
2023-02-13T20:59:10.026Z,98946.63
2023-02-13T21:01:42.472Z,98944.91
2023-02-13T21:04:14.654Z,98949.06
2023-02-13T21:06:43.921Z,98940.72
2023-02-13T21:09:13.224Z,98935.66
2023-02-13T21:11:44.785Z,98936.44
2023-02-13T21:14:15.105Z,98933.88
2023-02-13T21:16:44.844Z,98941.66
2023-02-13T21:19:21.862Z,98931.28
2023-02-13T21:21:51.279Z,98916.81
2023-02-13T21:24:23.697Z,98913.28
2023-02-13T21:26:54.085Z,98923.66
2023-02-13T21:29:23.538Z,98932.25
2023-02-13T21:31:52.528Z,98925.38
2023-02-13T21:34:21.723Z,98924.53
2023-02-13T21:36:50.628Z,98922.78
2023-02-13T21:39:19.974Z,98917.66
2023-02-13T21:41:49.833Z,98913.41
2023-02-13T21:44:19.091Z,98924.59
2023-02-13T21:46:48.357Z,98919.44
2023-02-13T21:49:19.772Z,98923.69
2023-02-13T21:51:49.261Z,98919.53
2023-02-13T21:54:18.230Z,98921.22
2023-02-13T21:56:47.988Z,98918.66
2023-02-13T21:59:18.662Z,98916.03
2023-02-13T22:01:51.217Z,98929.84
2023-02-13T22:04:20.787Z,98936.78
2023-02-13T22:06:52.330Z,98933.31
2023-02-13T22:09:23.111Z,98935.91
2023-02-13T22:11:55.757Z,98926.47
2023-02-13T22:14:24.872Z,98933.31
2023-02-13T22:16:54.147Z,98926.50
2023-02-13T22:19:23.452Z,98923.03
2023-02-13T22:21:52.301Z,98922.16
2023-02-13T22:24:21.294Z,98930.75
2023-02-13T22:26:50.467Z,98921.31
2023-02-13T22:29:22.535Z,98925.59
2023-02-13T22:31:51.819Z,98915.31
2023-02-13T22:34:21.320Z,98912.75
2023-02-13T22:36:50.641Z,98905.94
2023-02-13T22:39:19.562Z,98905.00
2023-02-13T22:41:48.845Z,98905.00
2023-02-13T22:44:17.893Z,98906.69
2023-02-13T22:46:47.087Z,98909.31
2023-02-13T22:49:16.033Z,98906.72
2023-02-13T22:51:45.057Z,98904.97
2023-02-13T22:54:14.126Z,98902.38
2023-02-13T22:56:43.229Z,98880.03
2023-02-13T22:59:13.622Z,98867.94
2023-02-13T23:01:43.056Z,98864.53
2023-02-13T23:04:13.038Z,98866.28
2023-02-13T23:06:42.586Z,98874.88
2023-02-13T23:09:11.643Z,98874.00
2023-02-13T23:11:59.300Z,98880.00
2023-02-13T23:14:28.994Z,98894.66
2023-02-13T23:17:16.211Z,98896.44
2023-02-13T23:19:46.573Z,98883.56
2023-02-13T23:22:17.226Z,98875.81
2023-02-13T23:24:46.612Z,98879.28
2023-02-13T23:27:17.026Z,98885.31
2023-02-13T23:29:46.606Z,98872.41
2023-02-13T23:32:15.710Z,98872.44
2023-02-13T23:34:44.989Z,98867.28
2023-02-13T23:37:13.742Z,98852.69
2023-02-13T23:39:43.054Z,98858.72
2023-02-13T23:42:12.605Z,98854.44
2023-02-13T23:44:41.688Z,98857.91
2023-02-13T23:47:10.804Z,98846.78
2023-02-13T23:49:39.637Z,98845.94
2023-02-13T23:52:08.902Z,98857.97
2023-02-13T23:54:38.956Z,98864.84
2023-02-13T23:57:08.696Z,98864.81
2023-02-13T23:59:38.987Z,98862.25
